createdAt,value
2022-08-31T00:02:26.227Z,100513.22
2022-08-31T00:05:34.047Z,100518.69
2022-08-31T00:08:36.728Z,100512.66
2022-08-31T00:11:42.382Z,100516.53
2022-08-31T00:14:45.047Z,100508.59
2022-08-31T00:17:48.949Z,100517.25
2022-08-31T00:20:55.607Z,100519.44
2022-08-31T00:23:59.949Z,100516.88
2022-08-31T00:27:04.421Z,100517.25
2022-08-31T00:30:09.497Z,100513.78
2022-08-31T00:33:13.647Z,100520.25
2022-08-31T00:36:23.092Z,100514.41
2022-08-31T00:39:37.576Z,100523.44
2022-08-31T00:42:56.977Z,100528.41
2022-08-31T00:46:00.531Z,100522.38
2022-08-31T00:49:19.208Z,100517.72
2022-08-31T00:52:29.648Z,100522.16
2022-08-31T00:55:37.125Z,100519.97
2022-08-31T00:58:45.573Z,100525.34
2022-08-31T01:02:01.775Z,100526.56
2022-08-31T01:05:05.850Z,100523.97
2022-08-31T01:08:11.840Z,100527.38
2022-08-31T01:11:20.717Z,100527.56
2022-08-31T01:14:25.016Z,100532.66
2022-08-31T01:17:30.631Z,100534.91
2022-08-31T01:20:51.420Z,100529.75
2022-08-31T01:24:01.036Z,100520.59
2022-08-31T01:27:07.793Z,100525.66
2022-08-31T01:30:21.007Z,100528.16
2022-08-31T01:33:23.944Z,100532.03
2022-08-31T01:36:32.761Z,100521.41
2022-08-31T01:39:35.951Z,100515.84
2022-08-31T01:42:42.423Z,100524.19
2022-08-31T01:45:47.470Z,100526.19
2022-08-31T01:48:53.035Z,100523.62
2022-08-31T01:51:56.988Z,100524.03
2022-08-31T01:55:01.129Z,100517.78
2022-08-31T01:58:05.328Z,100512.53
2022-08-31T02:01:33.237Z,100521.84
2022-08-31T02:04:29.029Z,100523.62
2022-08-31T02:07:31.973Z,100521.63
2022-08-31T02:10:35.787Z,100527.56
2022-08-31T02:13:41.011Z,100532.13
2022-08-31T02:16:44.803Z,100528.19
2022-08-31T02:19:51.658Z,100523.38
2022-08-31T02:22:57.220Z,100519.25
2022-08-31T02:26:00.577Z,100512.97
2022-08-31T02:29:03.535Z,100512.84
2022-08-31T02:32:08.983Z,100513.25
2022-08-31T02:35:24.145Z,100513.62
2022-08-31T02:38:32.050Z,100513.41
2022-08-31T02:41:39.460Z,100522.34
2022-08-31T02:44:44.940Z,100519.94
2022-08-31T02:47:48.083Z,100516.88
2022-08-31T02:50:53.533Z,100527.66
2022-08-31T02:53:56.374Z,100525.06
2022-08-31T02:57:02.770Z,100519.69
2022-08-31T03:00:07.731Z,100525.59
2022-08-31T03:03:18.912Z,100519.81
2022-08-31T03:06:23.233Z,100514.47
2022-08-31T03:09:27.466Z,100517.16
2022-08-31T03:12:32.643Z,100509.19
2022-08-31T03:15:38.411Z,100518.81
2022-08-31T03:18:45.087Z,100520.91
2022-08-31T03:21:48.292Z,100523.22
2022-08-31T03:25:05.424Z,100520.53
2022-08-31T03:28:08.740Z,100517.03
2022-08-31T03:31:14.421Z,100525.06
2022-08-31T03:34:17.713Z,100526.94
2022-08-31T03:37:24.344Z,100525.37
2022-08-31T03:40:30.601Z,100531.63
2022-08-31T03:43:34.398Z,100523.16
2022-08-31T03:46:38.146Z,100521.56
2022-08-31T03:49:41.630Z,100531.91
2022-08-31T03:52:46.055Z,100522.66
2022-08-31T03:55:49.455Z,100521.87
2022-08-31T03:58:53.220Z,100520.28
2022-08-31T04:02:00.004Z,100522.16
2022-08-31T04:05:19.148Z,100526.28
2022-08-31T04:08:34.713Z,100536.47
2022-08-31T04:11:45.803Z,100536.75
2022-08-31T04:15:09.409Z,100539.72
2022-08-31T04:18:27.836Z,100541.87
2022-08-31T04:21:31.236Z,100539.19
2022-08-31T04:24:38.771Z,100533.84
2022-08-31T04:27:42.860Z,100542.41
2022-08-31T04:30:45.934Z,100544.00
2022-08-31T04:34:00.352Z,100543.34
2022-08-31T04:37:05.220Z,100544.34
2022-08-31T04:40:19.044Z,100543.47
2022-08-31T04:43:23.748Z,100546.38
2022-08-31T04:46:28.562Z,100544.63
2022-08-31T04:49:32.427Z,100549.13
2022-08-31T04:52:38.496Z,100546.94
2022-08-31T04:55:44.180Z,100553.31
2022-08-31T04:58:51.642Z,100549.69
2022-08-31T05:01:56.146Z,100546.16
2022-08-31T05:05:03.213Z,100553.22
2022-08-31T05:08:20.276Z,100547.72
2022-08-31T05:11:48.398Z,100555.09
2022-08-31T05:14:52.086Z,100556.50
2022-08-31T05:17:55.955Z,100550.41
2022-08-31T05:21:14.152Z,100546.94
2022-08-31T05:24:40.999Z,100545.44
2022-08-31T05:27:53.781Z,100553.72
2022-08-31T05:30:58.022Z,100554.81
2022-08-31T05:34:03.088Z,100565.75
2022-08-31T05:37:06.807Z,100562.53
2022-08-31T05:40:11.035Z,100565.09
2022-08-31T05:43:19.862Z,100569.78
2022-08-31T05:46:27.513Z,100564.28
2022-08-31T05:49:33.352Z,100567.53
2022-08-31T05:52:38.608Z,100568.00
2022-08-31T05:55:42.948Z,100560.38
2022-08-31T05:58:49.521Z,100557.94
2022-08-31T06:01:56.704Z,100561.84
2022-08-31T06:05:31.014Z,100556.72
2022-08-31T06:08:35.827Z,100560.28
2022-08-31T06:11:42.250Z,100552.78
2022-08-31T06:14:51.243Z,100553.13
2022-08-31T06:17:59.521Z,100557.78
2022-08-31T06:21:11.034Z,100556.56
2022-08-31T06:24:32.618Z,100564.34
2022-08-31T06:27:39.789Z,100564.69
2022-08-31T06:30:54.907Z,100561.25
2022-08-31T06:34:05.350Z,100558.72
2022-08-31T06:37:18.982Z,100567.88
2022-08-31T06:40:27.239Z,100564.72
2022-08-31T06:43:51.757Z,100562.47
2022-08-31T06:47:01.423Z,100572.31
2022-08-31T06:50:07.750Z,100563.56
2022-08-31T06:53:10.873Z,100564.62
2022-08-31T06:56:45.612Z,100569.19
2022-08-31T06:59:54.947Z,100565.34
2022-08-31T07:03:23.104Z,100565.47
2022-08-31T07:13:59.083Z,100581.44
2022-08-31T07:17:08.101Z,100575.00
2022-08-31T07:20:13.738Z,100572.37
2022-08-31T07:23:19.044Z,100583.69
2022-08-31T07:26:27.824Z,100573.03
2022-08-31T07:29:40.365Z,100579.06
2022-08-31T07:32:48.975Z,100577.97
2022-08-31T07:35:52.876Z,100578.31
2022-08-31T07:39:14.700Z,100574.72
2022-08-31T07:42:25.973Z,100568.75
2022-08-31T07:45:35.812Z,100576.53
2022-08-31T08:38:46.451Z,100548.91
2022-08-31T08:42:13.580Z,100550.91
2022-08-31T08:45:19.641Z,100552.53
2022-08-31T08:48:38.168Z,100549.28
2022-08-31T08:51:43.227Z,100551.09
2022-08-31T08:54:51.216Z,100553.41
2022-08-31T08:57:57.556Z,100538.37
2022-08-31T09:01:31.247Z,100545.66
2022-08-31T09:05:06.097Z,100539.78
2022-08-31T09:08:46.402Z,100535.19
2022-08-31T09:20:00.452Z,100530.75
2022-08-31T09:23:08.592Z,100520.62
2022-08-31T09:27:07.544Z,100525.28
2022-08-31T09:33:51.498Z,100517.06
2022-08-31T09:37:16.789Z,100512.47
2022-08-31T09:40:59.462Z,100504.00
2022-08-31T09:44:35.373Z,100497.28
2022-08-31T09:47:53.674Z,100496.34
2022-08-31T09:51:06.293Z,100503.34
2022-08-31T09:54:36.945Z,100499.56
2022-08-31T10:01:51.561Z,100491.56
2022-08-31T10:05:11.957Z,100476.41
2022-08-31T10:08:49.899Z,100486.50
2022-08-31T10:12:20.262Z,100475.75
2022-08-31T10:15:43.971Z,100469.19
2022-08-31T10:19:02.189Z,100466.56
2022-08-31T10:22:31.225Z,100470.94
2022-08-31T10:25:48.820Z,100471.94
2022-08-31T10:29:35.691Z,100466.50
2022-08-31T10:32:55.675Z,100448.91
2022-08-31T10:36:01.603Z,100446.63
2022-08-31T10:39:33.809Z,100446.59
2022-08-31T10:42:43.084Z,100439.03
2022-08-31T10:45:53.278Z,100435.91
2022-08-31T10:48:59.681Z,100434.81
2022-08-31T10:52:17.349Z,100440.37
2022-08-31T10:55:29.833Z,100430.53
2022-08-31T10:58:46.538Z,100420.19
2022-08-31T11:02:43.972Z,100420.59
2022-08-31T11:05:50.945Z,100420.78
2022-08-31T11:09:03.459Z,100415.31
2022-08-31T11:12:27.774Z,100413.59
2022-08-31T11:23:48.053Z,100414.31
2022-08-31T11:27:19.128Z,100407.75
2022-08-31T11:30:29.193Z,100412.84
2022-08-31T11:33:51.017Z,100407.97
2022-08-31T11:37:08.801Z,100399.56
2022-08-31T11:41:01.742Z,100397.78
2022-08-31T11:44:56.198Z,100398.81
2022-08-31T11:48:07.719Z,100392.16
2022-08-31T11:58:42.573Z,100386.63
2022-08-31T12:01:48.330Z,100381.28
2022-08-31T12:05:02.674Z,100386.56
2022-08-31T12:12:28.222Z,100378.94
2022-08-31T12:16:19.357Z,100367.22
2022-08-31T12:19:51.924Z,100374.19
2022-08-31T12:27:17.603Z,100364.38
2022-08-31T13:59:46.173Z,100301.47
2022-08-31T14:06:45.853Z,100303.03
2022-08-31T15:03:05.367Z,100270.25
2022-08-31T15:06:13.921Z,100276.81
2022-08-31T15:09:17.759Z,100280.28
2022-08-31T15:15:55.904Z,100274.09
2022-08-31T15:19:12.234Z,100268.88
2022-08-31T15:30:16.788Z,100265.34
2022-08-31T15:33:25.518Z,100262.88
2022-08-31T16:09:44.880Z,100245.81
2022-08-31T16:12:52.735Z,100247.69
2022-08-31T16:16:01.076Z,100246.97
2022-08-31T17:25:03.179Z,100277.81
2022-08-31T17:28:10.997Z,100272.59
2022-08-31T17:31:15.330Z,100283.34
2022-08-31T17:34:44.139Z,100277.06
2022-08-31T17:38:15.616Z,100275.53
2022-08-31T17:41:18.872Z,100277.28
2022-08-31T17:44:35.868Z,100283.69
2022-08-31T17:47:39.668Z,100284.78
2022-08-31T17:50:45.387Z,100290.94
2022-08-31T17:53:57.385Z,100297.94
2022-08-31T17:57:02.832Z,100310.31
2022-08-31T18:00:06.880Z,100300.09
2022-08-31T18:03:23.970Z,100307.09
2022-08-31T18:06:31.344Z,100305.06
2022-08-31T18:09:39.526Z,100303.50
2022-08-31T18:12:46.619Z,100316.44
2022-08-31T18:15:51.509Z,100331.13
2022-08-31T18:19:11.217Z,100331.87
2022-08-31T18:22:15.285Z,100335.22
2022-08-31T18:25:19.163Z,100333.62
2022-08-31T18:28:37.682Z,100332.75
2022-08-31T18:31:46.256Z,100343.75
2022-08-31T18:34:54.078Z,100335.53
2022-08-31T18:38:15.792Z,100337.88
2022-08-31T18:41:42.817Z,100343.47
2022-08-31T18:45:16.895Z,100340.97
2022-08-31T18:48:26.292Z,100344.09
2022-08-31T18:51:37.006Z,100331.59
2022-08-31T18:54:40.490Z,100334.06
2022-08-31T18:57:49.053Z,100342.78
2022-08-31T19:00:57.753Z,100343.47
2022-08-31T19:04:03.606Z,100340.91
2022-08-31T19:07:06.901Z,100349.69
2022-08-31T19:10:14.244Z,100357.59
2022-08-31T19:13:18.338Z,100360.31
2022-08-31T19:16:25.361Z,100358.72
2022-08-31T19:19:29.312Z,100367.06
2022-08-31T19:22:35.962Z,100365.50
2022-08-31T19:25:43.790Z,100361.66
2022-08-31T19:28:50.926Z,100366.41
2022-08-31T19:31:56.252Z,100369.66
2022-08-31T19:35:07.783Z,100370.66
2022-08-31T19:38:25.255Z,100369.66
2022-08-31T19:41:31.408Z,100375.19
2022-08-31T19:48:04.808Z,100383.44
2022-08-31T19:51:08.563Z,100395.34
2022-08-31T19:54:13.342Z,100376.84
2022-08-31T19:57:16.817Z,100378.69
2022-08-31T20:00:20.884Z,100378.69
2022-08-31T20:03:38.559Z,100377.94
2022-08-31T20:06:42.193Z,100385.25
2022-08-31T20:09:45.316Z,100380.09
2022-08-31T20:12:47.838Z,100381.03
2022-08-31T20:15:53.463Z,100387.78
2022-08-31T20:19:20.827Z,100387.78
2022-08-31T20:22:29.833Z,100382.75
2022-08-31T20:25:37.785Z,100385.84
2022-08-31T20:28:43.408Z,100389.66
2022-08-31T20:31:52.760Z,100383.81
2022-08-31T20:34:57.024Z,100385.75
2022-08-31T20:38:01.860Z,100395.16
2022-08-31T20:41:11.564Z,100405.47
2022-08-31T20:44:16.421Z,100396.94
2022-08-31T20:47:38.096Z,100390.75
2022-08-31T20:50:42.848Z,100382.84
2022-08-31T20:54:11.110Z,100390.97
2022-08-31T20:57:41.156Z,100395.41
2022-08-31T21:00:47.935Z,100398.28
2022-08-31T21:03:54.242Z,100407.34
2022-08-31T21:07:23.332Z,100404.66
2022-08-31T21:10:37.396Z,100406.09
2022-08-31T21:14:00.512Z,100400.72
2022-08-31T21:17:06.348Z,100397.72
2022-08-31T21:24:24.815Z,100397.41
2022-08-31T21:27:40.908Z,100399.34
2022-08-31T21:30:50.559Z,100397.59
2022-08-31T21:34:01.028Z,100395.50
2022-08-31T21:37:10.203Z,100395.06
2022-08-31T21:40:20.760Z,100396.81
2022-08-31T21:43:33.816Z,100387.75
2022-08-31T21:46:38.465Z,100386.03
2022-08-31T21:49:44.012Z,100383.78
2022-08-31T21:52:51.701Z,100392.34
2022-08-31T21:55:56.197Z,100389.97
2022-08-31T21:59:02.111Z,100399.34
2022-08-31T22:02:09.498Z,100402.03
2022-08-31T22:05:15.751Z,100403.16
2022-08-31T22:08:26.415Z,100400.59
2022-08-31T22:11:33.065Z,100404.09
2022-08-31T22:14:40.042Z,100396.97
2022-08-31T22:18:11.467Z,100390.19
2022-08-31T22:21:16.929Z,100393.19
2022-08-31T22:24:34.360Z,100391.44
2022-08-31T22:27:48.236Z,100390.50
2022-08-31T22:30:56.552Z,100399.41
2022-08-31T22:34:08.434Z,100404.78
2022-08-31T22:37:14.541Z,100412.69
2022-08-31T22:40:21.297Z,100408.44
2022-08-31T22:43:25.894Z,100409.91
2022-08-31T22:46:28.726Z,100399.37
2022-08-31T22:49:34.656Z,100404.97
2022-08-31T22:52:55.434Z,100409.72
2022-08-31T22:56:11.364Z,100414.09
2022-08-31T22:59:30.572Z,100419.47
2022-08-31T23:02:45.578Z,100424.59
2022-08-31T23:05:51.763Z,100419.25
2022-08-31T23:08:58.027Z,100426.72
2022-08-31T23:12:05.301Z,100440.09
2022-08-31T23:15:15.157Z,100448.78
2022-08-31T23:18:21.232Z,100452.34
2022-08-31T23:21:29.517Z,100453.06
2022-08-31T23:24:41.576Z,100462.88
2022-08-31T23:27:49.903Z,100464.75
2022-08-31T23:31:05.251Z,100473.31
2022-08-31T23:34:22.655Z,100472.00
2022-08-31T23:37:39.653Z,100469.19
2022-08-31T23:40:58.874Z,100467.00
2022-08-31T23:44:16.214Z,100465.09
2022-08-31T23:47:30.805Z,100460.09
2022-08-31T23:50:33.746Z,100472.19
2022-08-31T23:53:57.161Z,100475.81
2022-08-31T23:57:02.787Z,100457.22
